createdAt,value
2019-04-29T00:01:50.595Z,59.33
2019-04-29T00:04:23.275Z,60.83
2019-04-29T00:06:55.992Z,62.10
2019-04-29T00:09:31.010Z,63.28
2019-04-29T00:12:03.200Z,64.65
2019-04-29T00:14:37.769Z,60.16
2019-04-29T00:17:13.225Z,56.67
2019-04-29T00:19:50.150Z,54.83
2019-04-29T00:22:22.750Z,56.15
2019-04-29T00:24:55.235Z,57.56
2019-04-29T00:27:28.275Z,60.03
2019-04-29T00:30:00.950Z,61.00
2019-04-29T00:32:33.880Z,62.01
2019-04-29T00:35:08.172Z,63.74
2019-04-29T00:37:55.525Z,64.93
2019-04-29T00:40:30.565Z,59.85
2019-04-29T00:43:20.895Z,57.15
2019-04-29T00:45:53.640Z,54.76
2019-04-29T00:48:26.310Z,55.98
2019-04-29T00:50:59.092Z,57.68
2019-04-29T00:53:31.704Z,59.42
2019-04-29T00:56:05.175Z,60.68
2019-04-29T00:58:37.585Z,61.69
2019-04-29T01:01:14.006Z,63.18
2019-04-29T01:03:46.684Z,64.39
2019-04-29T01:06:19.475Z,60.20
2019-04-29T01:08:51.940Z,56.05
2019-04-29T01:11:24.725Z,55.50
2019-04-29T01:13:57.376Z,56.79
2019-04-29T01:16:30.096Z,58.69
2019-04-29T01:19:03.969Z,58.59
2019-04-29T01:21:36.801Z,61.97
2019-04-29T01:24:09.537Z,63.15
2019-04-29T01:26:49.910Z,64.04
2019-04-29T01:29:24.214Z,59.86
2019-04-29T01:31:57.422Z,56.53
2019-04-29T01:34:31.640Z,54.73
2019-04-29T01:37:04.255Z,56.31
2019-04-29T01:39:43.960Z,57.31
2019-04-29T01:42:18.286Z,59.42
2019-04-29T01:44:50.835Z,60.51
2019-04-29T01:47:23.424Z,62.36
2019-04-29T01:49:56.060Z,63.45
2019-04-29T01:52:28.599Z,59.58
2019-04-29T01:55:01.241Z,57.25
2019-04-29T01:57:33.714Z,58.14
2019-04-29T02:00:12.244Z,58.96
2019-04-29T02:02:43.975Z,61.16
2019-04-29T02:05:16.490Z,61.97
2019-04-29T02:07:48.955Z,64.90
2019-04-29T02:10:23.272Z,63.77
2019-04-29T02:12:55.922Z,60.57
2019-04-29T02:15:28.600Z,57.53
2019-04-29T02:18:01.106Z,55.68
2019-04-29T02:20:34.946Z,56.16
2019-04-29T02:23:07.300Z,57.66
2019-04-29T02:25:44.682Z,59.48
2019-04-29T02:28:17.296Z,61.00
2019-04-29T02:30:53.245Z,61.57
2019-04-29T02:33:25.888Z,62.45
2019-04-29T02:35:58.826Z,64.72
2019-04-29T02:38:34.374Z,60.04
2019-04-29T02:41:27.181Z,57.14
2019-04-29T02:44:01.396Z,55.94
2019-04-29T02:46:34.132Z,56.53
2019-04-29T02:49:06.956Z,58.59
2019-04-29T02:51:44.300Z,59.45
2019-04-29T02:54:16.970Z,60.71
2019-04-29T02:57:02.933Z,62.33
2019-04-29T02:59:55.545Z,63.52
2019-04-29T03:02:30.082Z,59.77
2019-04-29T03:05:04.797Z,56.93
2019-04-29T03:07:37.472Z,54.63
2019-04-29T03:10:10.376Z,55.62
2019-04-29T03:12:43.006Z,57.24
2019-04-29T03:15:19.970Z,58.53
2019-04-29T03:17:53.741Z,60.68
2019-04-29T03:20:28.055Z,61.69
2019-04-29T03:23:14.246Z,62.93
2019-04-29T03:25:47.031Z,64.26
2019-04-29T03:28:19.751Z,60.05
2019-04-29T03:30:52.370Z,56.65
2019-04-29T03:33:25.125Z,55.97
2019-04-29T03:35:58.060Z,58.01
2019-04-29T03:38:31.625Z,58.77
2019-04-29T03:41:04.319Z,59.59
2019-04-29T03:43:37.001Z,61.83
2019-04-29T03:46:09.607Z,62.72
2019-04-29T03:48:42.464Z,63.96
2019-04-29T03:51:14.939Z,61.73
2019-04-29T03:53:47.500Z,57.30
2019-04-29T03:56:20.091Z,56.05
2019-04-29T03:58:52.847Z,57.05
2019-04-29T04:01:27.012Z,57.60
2019-04-29T04:04:03.977Z,59.79
2019-04-29T04:06:38.130Z,59.27
2019-04-29T04:09:19.575Z,61.46
2019-04-29T04:11:52.170Z,62.72
2019-04-29T04:14:24.911Z,65.51
2019-04-29T04:16:59.255Z,62.11
2019-04-29T04:19:33.635Z,58.26
2019-04-29T04:22:06.185Z,56.67
2019-04-29T04:24:39.031Z,57.61
2019-04-29T04:27:11.616Z,58.46
2019-04-29T04:29:44.310Z,59.31
2019-04-29T04:32:17.156Z,60.32
2019-04-29T04:34:50.173Z,62.49
2019-04-29T04:37:23.028Z,64.13
2019-04-29T04:39:56.836Z,61.02
2019-04-29T04:42:30.096Z,57.37
2019-04-29T04:45:02.998Z,55.27
2019-04-29T04:47:35.689Z,56.14
2019-04-29T04:50:09.035Z,58.00
2019-04-29T04:52:41.590Z,59.24
2019-04-29T04:55:14.720Z,59.38
2019-04-29T04:57:47.585Z,61.32
2019-04-29T05:00:22.478Z,63.38
2019-04-29T05:02:55.975Z,64.35
2019-04-29T05:05:28.524Z,60.26
2019-04-29T05:08:01.298Z,56.89
2019-04-29T05:10:34.010Z,57.25
2019-04-29T05:13:06.470Z,58.67
2019-04-29T05:15:39.441Z,60.29
2019-04-29T05:18:12.157Z,61.47
2019-04-29T05:20:44.924Z,62.64
2019-04-29T05:23:17.475Z,63.53
2019-04-29T05:25:50.155Z,60.43
2019-04-29T05:28:22.775Z,57.48
2019-04-29T05:30:55.515Z,55.30
2019-04-29T05:33:27.918Z,56.03
2019-04-29T05:36:07.700Z,57.43
2019-04-29T05:38:41.790Z,59.01
2019-04-29T05:41:14.680Z,59.80
2019-04-29T05:43:49.179Z,61.22
2019-04-29T05:46:27.381Z,62.51
2019-04-29T05:49:02.496Z,63.30
2019-04-29T05:51:35.909Z,60.40
2019-04-29T05:54:10.019Z,57.26
2019-04-29T05:56:42.842Z,55.19
2019-04-29T05:59:15.419Z,56.00
2019-04-29T06:01:48.980Z,57.43
2019-04-29T06:04:21.585Z,59.04
2019-04-29T06:06:54.345Z,60.18
2019-04-29T06:09:26.925Z,61.44
2019-04-29T06:11:59.633Z,63.03
2019-04-29T06:14:32.498Z,63.65
2019-04-29T06:17:07.692Z,60.50
2019-04-29T06:19:41.041Z,58.06
2019-04-29T06:22:13.920Z,55.24
2019-04-29T06:24:46.779Z,56.30
2019-04-29T06:27:19.552Z,57.63
2019-04-29T06:29:52.333Z,59.29
2019-04-29T06:32:26.387Z,60.33
2019-04-29T06:34:59.669Z,61.80
2019-04-29T06:37:32.320Z,63.22
2019-04-29T06:40:06.770Z,64.32
2019-04-29T06:42:39.612Z,60.98
2019-04-29T06:45:12.369Z,57.96
2019-04-29T06:47:45.195Z,55.76
2019-04-29T06:50:18.694Z,56.59
2019-04-29T06:52:51.584Z,57.80
2019-04-29T06:55:24.336Z,58.72
2019-04-29T06:57:57.025Z,60.60
2019-04-29T07:00:29.640Z,61.90
2019-04-29T07:03:02.504Z,62.57
2019-04-29T07:05:35.105Z,63.47
2019-04-29T07:08:08.014Z,60.27
2019-04-29T07:10:40.336Z,56.93
2019-04-29T07:13:12.875Z,54.80
2019-04-29T07:15:47.758Z,55.70
2019-04-29T07:18:19.394Z,56.95
2019-04-29T07:20:51.875Z,58.10
2019-04-29T07:23:24.455Z,59.20
2019-04-29T07:25:57.174Z,60.51
2019-04-29T07:28:29.924Z,61.49
2019-04-29T07:31:03.151Z,63.21
2019-04-29T07:33:35.835Z,63.50
2019-04-29T07:36:11.275Z,59.99
2019-04-29T07:38:46.528Z,57.11
2019-04-29T07:41:19.030Z,54.62
2019-04-29T07:43:50.275Z,55.77
2019-04-29T07:46:24.176Z,57.16
2019-04-29T07:49:01.791Z,57.96
2019-04-29T07:51:30.635Z,59.33
2019-04-29T07:54:03.154Z,60.66
2019-04-29T07:56:37.866Z,61.52
2019-04-29T07:59:11.325Z,62.84
2019-04-29T08:01:44.074Z,63.33
2019-04-29T08:04:16.554Z,59.96
2019-04-29T08:06:50.097Z,56.52
2019-04-29T08:09:22.516Z,54.46
2019-04-29T08:11:55.215Z,55.26
2019-04-29T08:14:28.377Z,56.32
2019-04-29T08:17:00.955Z,57.65
2019-04-29T08:19:33.374Z,58.34
2019-04-29T08:22:05.835Z,60.19
2019-04-29T08:24:38.375Z,61.00
2019-04-29T08:27:11.016Z,62.11
2019-04-29T08:29:45.055Z,62.68
2019-04-29T08:32:17.415Z,63.41
2019-04-29T08:34:53.598Z,60.07
2019-04-29T08:37:24.993Z,55.84
2019-04-29T08:40:14.750Z,54.37
2019-04-29T08:42:46.675Z,55.06
2019-04-29T08:45:34.804Z,56.03
2019-04-29T08:48:08.005Z,57.51
2019-04-29T08:50:40.385Z,58.29
2019-04-29T08:53:12.986Z,59.64
2019-04-29T08:55:45.385Z,60.50
2019-04-29T08:58:17.868Z,61.24
2019-04-29T09:00:51.453Z,62.30
2019-04-29T09:03:24.505Z,62.77
2019-04-29T09:06:05.005Z,63.13
2019-04-29T09:08:32.839Z,59.57
2019-04-29T09:11:08.121Z,57.14
2019-04-29T09:13:39.607Z,57.32
2019-04-29T09:16:12.085Z,57.80
2019-04-29T09:18:44.590Z,58.64
2019-04-29T09:21:17.024Z,59.28
2019-04-29T09:23:50.645Z,60.04
2019-04-29T09:26:32.485Z,60.70
2019-04-29T09:29:23.145Z,61.39
2019-04-29T09:31:55.705Z,61.59
2019-04-29T09:34:28.286Z,62.67
2019-04-29T09:37:00.872Z,63.26
2019-04-29T09:39:42.889Z,58.66
2019-04-29T09:42:22.685Z,55.82
2019-04-29T09:44:59.845Z,56.00
2019-04-29T09:47:33.925Z,56.62
2019-04-29T09:50:10.229Z,57.74
2019-04-29T09:52:42.705Z,59.00
2019-04-29T09:55:16.999Z,58.51
2019-04-29T09:57:49.625Z,59.48
2019-04-29T10:00:26.172Z,59.29
2019-04-29T10:03:05.966Z,59.58
2019-04-29T10:05:48.385Z,61.00
2019-04-29T10:08:20.905Z,61.70
2019-04-29T10:10:53.367Z,61.27
2019-04-29T10:13:25.826Z,61.06
2019-04-29T10:16:11.786Z,61.72
2019-04-29T10:18:50.166Z,58.46
2019-04-29T10:21:23.449Z,55.39
2019-04-29T10:23:56.625Z,54.40
2019-04-29T10:26:28.966Z,54.55
2019-04-29T10:29:05.968Z,54.68
2019-04-29T10:31:38.445Z,54.11
2019-04-29T10:34:12.765Z,55.60
2019-04-29T10:36:45.265Z,56.03
2019-04-29T10:39:35.465Z,56.56
2019-04-29T10:42:09.525Z,56.10
2019-04-29T10:44:59.610Z,55.95
2019-04-29T10:47:36.425Z,56.79
2019-04-29T10:50:15.428Z,57.89
2019-04-29T10:52:49.525Z,57.00
2019-04-29T10:55:25.591Z,56.84
2019-04-29T10:57:56.925Z,54.42
2019-04-29T11:00:57.316Z,55.59
2019-04-29T11:03:27.284Z,56.02
2019-04-29T11:06:01.958Z,55.62
2019-04-29T11:08:46.345Z,55.46
2019-04-29T11:11:23.227Z,55.23
2019-04-29T11:13:57.674Z,54.75
2019-04-29T11:16:45.307Z,54.35
2019-04-29T11:19:05.456Z,54.28
2019-04-29T11:21:38.968Z,54.45
2019-04-29T11:24:15.945Z,55.06
2019-04-29T11:27:11.177Z,55.36
2019-04-29T11:29:35.806Z,53.24
2019-04-29T11:32:08.985Z,53.55
2019-04-29T11:34:43.144Z,54.07
2019-04-29T11:37:17.939Z,52.94
2019-04-29T11:39:51.395Z,53.39
2019-04-29T11:42:24.385Z,52.41
2019-04-29T11:45:01.443Z,50.91
2019-04-29T11:47:33.245Z,52.01
2019-04-29T11:50:11.845Z,51.94
2019-04-29T11:52:43.904Z,51.79
2019-04-29T11:55:18.493Z,51.63
2019-04-29T11:57:57.964Z,51.71
2019-04-29T12:00:33.178Z,50.94
2019-04-29T12:03:14.354Z,51.78
2019-04-29T12:05:49.444Z,51.38
2019-04-29T12:08:21.965Z,52.05
2019-04-29T12:11:06.686Z,51.23
2019-04-29T12:13:30.305Z,52.25
2019-04-29T12:16:04.868Z,52.28
2019-04-29T12:18:53.905Z,51.07
2019-04-29T12:21:31.169Z,52.33
2019-04-29T12:24:04.305Z,51.60
2019-04-29T12:26:43.128Z,51.94
2019-04-29T12:29:13.624Z,50.51
2019-04-29T12:32:03.065Z,50.98
2019-04-29T12:34:53.275Z,50.07
2019-04-29T12:37:34.345Z,51.28
2019-04-29T12:40:24.987Z,50.63
2019-04-29T12:42:57.226Z,50.20
2019-04-29T12:45:32.054Z,50.30
2019-04-29T12:48:06.653Z,49.14
2019-04-29T12:50:39.086Z,49.40
2019-04-29T12:53:11.845Z,48.96
2019-04-29T12:55:49.460Z,49.00
2019-04-29T12:58:24.174Z,47.60
2019-04-29T13:01:01.160Z,47.16
2019-04-29T13:03:39.527Z,46.70
2019-04-29T13:06:38.798Z,46.11
2019-04-29T13:09:17.299Z,45.57
2019-04-29T13:11:48.328Z,44.37
2019-04-29T13:14:14.625Z,45.48
2019-04-29T13:16:55.805Z,45.87
2019-04-29T13:19:39.455Z,45.26
2019-04-29T13:22:15.516Z,44.98
2019-04-29T13:24:46.127Z,45.39
2019-04-29T13:27:20.756Z,44.57
2019-04-29T13:29:52.585Z,44.46
2019-04-29T13:32:29.861Z,44.44
2019-04-29T13:35:05.379Z,44.65
2019-04-29T13:37:35.805Z,44.51
2019-04-29T13:40:11.727Z,44.33
2019-04-29T13:42:48.491Z,44.26
2019-04-29T13:45:26.953Z,44.47
2019-04-29T13:48:07.111Z,44.78
2019-04-29T13:50:42.809Z,44.88
2019-04-29T13:53:16.572Z,44.14
2019-04-29T13:56:10.048Z,44.65
2019-04-29T13:58:27.168Z,44.22
2019-04-29T14:01:04.746Z,44.20
2019-04-29T14:03:41.978Z,43.60
2019-04-29T14:06:14.394Z,43.71
2019-04-29T14:08:48.005Z,43.05
2019-04-29T14:11:22.001Z,43.63
2019-04-29T14:13:54.786Z,42.95
2019-04-29T14:16:27.211Z,43.23
2019-04-29T14:18:59.611Z,43.73
2019-04-29T14:21:32.730Z,42.93
2019-04-29T14:24:05.370Z,42.17
2019-04-29T14:26:41.941Z,43.05
2019-04-29T14:29:11.550Z,42.83
2019-04-29T14:31:46.690Z,42.98
2019-04-29T14:34:21.302Z,42.63
2019-04-29T14:36:57.497Z,42.67
2019-04-29T14:39:37.264Z,42.63
2019-04-29T14:42:05.067Z,42.44
2019-04-29T14:44:39.085Z,42.59
2019-04-29T14:47:29.399Z,43.34
2019-04-29T14:50:03.591Z,42.73
2019-04-29T14:52:36.350Z,42.97
2019-04-29T14:55:09.410Z,42.48
2019-04-29T14:57:42.981Z,41.99
2019-04-29T15:00:23.407Z,42.65
2019-04-29T15:03:00.612Z,42.04
2019-04-29T15:05:32.766Z,42.86
2019-04-29T15:08:05.287Z,42.84
2019-04-29T15:10:38.584Z,42.66
2019-04-29T15:13:21.177Z,42.40
2019-04-29T15:16:09.680Z,42.42
2019-04-29T15:18:48.649Z,41.99
2019-04-29T15:21:32.984Z,42.58
2019-04-29T15:24:05.260Z,42.57
2019-04-29T15:26:37.620Z,42.10
2019-04-29T15:29:10.060Z,42.13
2019-04-29T15:31:47.162Z,41.99
2019-04-29T15:34:16.880Z,41.49
2019-04-29T15:36:49.279Z,41.85
2019-04-29T15:39:24.889Z,42.27
2019-04-29T15:41:56.363Z,41.77
2019-04-29T15:44:28.914Z,41.60
2019-04-29T15:47:01.522Z,41.62
2019-04-29T15:49:33.940Z,41.90
2019-04-29T15:52:06.400Z,41.60
2019-04-29T15:54:39.121Z,42.00
2019-04-29T15:57:15.481Z,42.30
2019-04-29T15:59:49.072Z,42.26
2019-04-29T16:02:20.060Z,42.12
2019-04-29T16:04:54.182Z,42.21
2019-04-29T16:07:37.220Z,42.12
2019-04-29T16:10:23.900Z,42.53
2019-04-29T16:13:00.780Z,42.52
2019-04-29T16:15:33.460Z,42.48
2019-04-29T16:18:10.570Z,42.50
2019-04-29T16:20:40.040Z,42.75
2019-04-29T16:23:12.620Z,42.73
2019-04-29T16:25:46.197Z,42.97
2019-04-29T16:28:24.337Z,43.05
2019-04-29T16:30:53.378Z,42.68
2019-04-29T16:33:26.921Z,42.60
2019-04-29T16:36:04.783Z,42.22
2019-04-29T16:38:33.945Z,41.80
2019-04-29T16:41:21.245Z,41.29
2019-04-29T16:43:55.465Z,41.35
2019-04-29T16:49:08.919Z,41.17
2019-04-29T16:51:41.573Z,40.49
2019-04-29T16:54:20.554Z,40.91
2019-04-29T16:56:50.002Z,41.07
2019-04-29T16:59:23.730Z,41.21
2019-04-29T17:01:56.600Z,41.08
2019-04-29T17:04:29.298Z,41.34
2019-04-29T17:07:12.356Z,41.35
2019-04-29T17:09:37.720Z,41.44
2019-04-29T17:12:11.110Z,41.74
2019-04-29T17:17:28.339Z,42.00
2019-04-29T17:19:54.070Z,41.90
2019-04-29T17:22:27.682Z,42.00
2019-04-29T17:25:01.705Z,42.26
2019-04-29T17:27:42.079Z,42.36
2019-04-29T17:30:29.303Z,42.46
2019-04-29T17:33:10.023Z,42.56
2019-04-29T17:35:15.895Z,41.42
2019-04-29T17:35:17.482Z,41.77
2019-04-29T17:35:47.614Z,42.63
2019-04-29T17:38:17.335Z,42.73
2019-04-29T17:40:51.087Z,42.73
2019-04-29T17:43:24.005Z,42.80
2019-04-29T17:46:07.285Z,42.85
2019-04-29T17:48:53.216Z,43.01
2019-04-29T17:51:26.643Z,43.11
2019-04-29T17:54:05.230Z,43.13
2019-04-29T17:56:48.896Z,43.37
2019-04-29T17:59:29.670Z,43.64
2019-04-29T18:02:18.415Z,43.78
2019-04-29T18:04:57.264Z,44.19
2019-04-29T18:07:51.571Z,44.19
2019-04-29T18:10:24.348Z,44.36
2019-04-29T18:12:54.979Z,44.90
2019-04-29T18:15:40.205Z,45.11
2019-04-29T18:18:07.211Z,45.62
2019-04-29T18:20:42.484Z,45.82
2019-04-29T18:23:30.045Z,45.79
2019-04-29T18:26:04.841Z,46.22
2019-04-29T18:28:37.547Z,46.81
2019-04-29T18:31:11.845Z,46.90
2019-04-29T18:33:45.151Z,47.34
2019-04-29T18:36:23.714Z,47.23
2019-04-29T18:38:52.141Z,47.66
2019-04-29T18:41:28.554Z,48.32
2019-04-29T18:44:03.014Z,48.23
2019-04-29T18:46:35.179Z,48.76
2019-04-29T18:49:07.930Z,48.72
2019-04-29T18:51:40.295Z,49.69
2019-04-29T18:54:12.896Z,49.90
2019-04-29T18:56:45.678Z,49.69
2019-04-29T18:59:21.265Z,50.12
2019-04-29T19:01:52.841Z,50.01
2019-04-29T19:04:25.663Z,50.36
2019-04-29T19:07:02.085Z,50.56
2019-04-29T19:09:35.842Z,50.67
2019-04-29T19:12:09.150Z,50.74
2019-04-29T19:14:42.052Z,50.71
2019-04-29T19:17:16.160Z,51.06
2019-04-29T19:19:50.420Z,51.17
2019-04-29T19:22:23.280Z,51.24
2019-04-29T19:24:55.995Z,51.22
2019-04-29T19:27:30.569Z,51.06
2019-04-29T19:30:05.331Z,51.27
2019-04-29T19:32:39.080Z,51.07
2019-04-29T19:35:12.320Z,50.98
2019-04-29T19:37:45.426Z,50.45
2019-04-29T19:40:19.170Z,50.26
2019-04-29T19:42:51.855Z,50.19
2019-04-29T19:45:24.665Z,50.18
2019-04-29T19:47:57.480Z,50.10
2019-04-29T19:50:31.384Z,50.16
2019-04-29T19:53:04.909Z,50.09
2019-04-29T19:55:42.248Z,50.01
2019-04-29T19:58:14.725Z,49.85
2019-04-29T20:00:48.808Z,49.97
2019-04-29T20:03:25.133Z,49.84
2019-04-29T20:06:08.451Z,49.91
2019-04-29T20:08:50.883Z,50.05
2019-04-29T20:11:14.161Z,49.92
2019-04-29T20:13:46.804Z,49.24
2019-04-29T20:16:42.795Z,49.34
2019-04-29T20:19:16.455Z,49.38
2019-04-29T20:21:43.263Z,48.97
2019-04-29T20:24:17.909Z,48.14
2019-04-29T20:26:51.261Z,48.43
2019-04-29T20:29:28.603Z,48.39
2019-04-29T20:31:58.958Z,47.93
2019-04-29T20:34:32.256Z,48.24
2019-04-29T20:37:06.065Z,48.17
2019-04-29T20:39:39.341Z,48.16
2019-04-29T20:42:12.240Z,47.94
2019-04-29T20:44:48.817Z,47.90
2019-04-29T20:47:23.285Z,47.98
2019-04-29T20:49:54.444Z,47.80
2019-04-29T20:52:36.205Z,47.61
2019-04-29T20:55:09.752Z,47.66
2019-04-29T20:57:42.755Z,47.45
2019-04-29T21:00:20.236Z,47.74
2019-04-29T21:02:50.712Z,48.01
2019-04-29T21:05:24.924Z,48.02
2019-04-29T21:08:03.541Z,48.38
2019-04-29T21:10:32.429Z,48.33
2019-04-29T21:13:15.164Z,48.53
2019-04-29T21:16:00.162Z,48.60
2019-04-29T21:18:32.770Z,48.80
2019-04-29T21:21:07.880Z,48.76
2019-04-29T21:23:40.050Z,48.97
2019-04-29T21:26:12.569Z,48.94
2019-04-29T21:28:47.025Z,49.54
2019-04-29T21:31:20.164Z,49.80
2019-04-29T21:33:57.450Z,49.94
2019-04-29T21:36:30.966Z,49.65
2019-04-29T21:39:22.851Z,49.49
2019-04-29T21:41:58.649Z,49.09
2019-04-29T21:44:29.684Z,49.66
2019-04-29T21:47:06.628Z,49.20
2019-04-29T21:49:45.322Z,49.18
2019-04-29T21:52:12.064Z,49.34
2019-04-29T21:54:49.127Z,49.34
2019-04-29T21:57:23.899Z,49.15
2019-04-29T21:59:53.179Z,48.74
2019-04-29T22:02:26.159Z,48.78
2019-04-29T22:04:59.054Z,48.66
2019-04-29T22:07:31.534Z,48.98
2019-04-29T22:10:05.256Z,49.12
2019-04-29T22:12:38.976Z,48.82
2019-04-29T22:15:15.802Z,48.84
2019-04-29T22:17:56.431Z,48.99
2019-04-29T22:20:23.116Z,49.04
2019-04-29T22:22:56.002Z,48.99
2019-04-29T22:25:28.880Z,49.17
2019-04-29T22:28:01.760Z,49.11
2019-04-29T22:30:35.425Z,49.32
2019-04-29T22:33:08.714Z,49.41
2019-04-29T22:35:41.169Z,49.44
2019-04-29T22:38:16.267Z,49.61
2019-04-29T22:40:48.350Z,49.77
2019-04-29T22:43:40.323Z,49.82
2019-04-29T22:46:12.156Z,49.87
2019-04-29T22:48:48.420Z,50.13
2019-04-29T22:51:19.425Z,50.01
2019-04-29T22:53:52.085Z,50.24
2019-04-29T22:56:27.612Z,50.39
2019-04-29T22:58:59.221Z,50.33
2019-04-29T23:01:32.061Z,50.73
2019-04-29T23:04:05.277Z,50.61
2019-04-29T23:06:39.895Z,50.95
2019-04-29T23:09:13.194Z,51.15
2019-04-29T23:11:47.539Z,51.35
2019-04-29T23:14:20.059Z,51.22
2019-04-29T23:16:52.785Z,51.38
2019-04-29T23:19:26.011Z,51.55
2019-04-29T23:22:22.159Z,51.76
2019-04-29T23:25:01.752Z,52.10
2019-04-29T23:27:36.054Z,51.93
2019-04-29T23:30:13.694Z,51.98
2019-04-29T23:32:47.513Z,52.21
2019-04-29T23:35:19.412Z,52.30
2019-04-29T23:37:51.991Z,52.51
2019-04-29T23:40:24.785Z,52.88
2019-04-29T23:42:57.526Z,52.74
2019-04-29T23:45:30.235Z,52.85
2019-04-29T23:48:02.860Z,53.14
2019-04-29T23:50:36.013Z,53.11
2019-04-29T23:53:08.695Z,53.47
2019-04-29T23:55:41.365Z,53.53
2019-04-29T23:58:32.728Z,53.51
